EW9507 Weather Reports


Display with metric or nautical units.
time (UTC)temp
F
wind
direction
speed
MPH
gust
MPH
rain 1hr
in
rain 24hr
in
rain mn
in
humidity
%
barometer
mb
20200808201513 86 286 14.0 22.0 0.00 0.00 0.00 17 848.6
20200808200009 88 141 1.0 10.0 0.00 0.00 0.00 16 848.3
20200808194549 89 253 11.0 21.0 0.00 0.00 0.00 16 848.4
20200808193117 89 209 10.0 18.0 0.00 0.00 0.00 21 848.5
20200808191531 87 142 3.0 11.0 0.00 0.00 0.00 20 848.7
20200808190153 86 165 6.0 11.0 0.00 0.00 0.00 21 849.0
20200808184835 87 254 11.0 17.0 0.00 0.00 0.00 22 849.3
20200808183228 86 159 10.0 18.0 0.00 0.00 0.00 24 849.4
20200808181647 86 175 11.0 19.0 0.00 0.00 0.00 25 849.5
20200808180123 85 147 8.0 17.0 0.00 0.00 0.00 25 849.7
20200808174706 84 221 10.0 17.0 0.00 0.00 0.00 25 849.8
20200808173154 83 165 10.0 16.0 0.00 0.00 0.00 26 850.1
20200808171524 83 138 8.0 17.0 0.00 0.00 0.00 27 850.1
20200808170014 82 161 8.0 17.0 0.00 0.00 0.00 27 850.1
20200808164513 81 226 3.0 17.0 0.00 0.00 0.00 28 850.2
20200808163210 82 190 6.0 13.0 0.00 0.00 0.00 28 850.3
20200808161706 79 228 7.0 15.0 0.00 0.00 0.00 32 850.3
20200808160250 78 230 11.0 16.0 0.00 0.00 0.00 33 850.5
20200808154532 77 285 4.0 13.0 0.00 0.00 0.00 35 850.5
20200808153053 76 286 7.0 13.0 0.00 0.00 0.00 38 850.6
20200808151715 75 252 9.0 12.0 0.00 0.00 0.00 41 850.5
20200808150052 74 255 9.0 12.0 0.00 0.00 0.00 42 850.5
20200808144542 72 241 7.0 11.0 0.00 0.00 0.00 45 850.5
20200808143029 71 279 7.0 12.0 0.00 0.00 0.00 48 850.5
20200808141627 69 262 5.0 9.0 0.00 0.00 0.00 52 850.5
20200808140112 68 265 6.0 8.0 0.00 0.00 0.00 54 850.4
20200808134657 66 267 5.0 8.0 0.00 0.00 0.00 57 850.5
20200808133158 65 265 4.0 7.0 0.00 0.00 0.00 59 850.5
20200808131600 62 201 1.0 3.0 0.00 0.00 0.00 63 850.6
20200808130046 60 169 0.0 5.0 0.00 0.00 0.00 67 850.5
20200808124559 57 155 2.0 3.0 0.00 0.00 0.00 70 850.3
20200808123010 57 188 1.0 4.0 0.00 0.00 0.00 70 850.2
20200808121516 58 119 0.0 4.0 0.00 0.00 0.00 66 850.1
20200808120004 61 252 1.0 9.0 0.00 0.00 0.00 64 850.0
20200808114508 62 276 3.0 5.0 0.00 0.00 0.00 59 849.8
20200808113037 62 255 1.0 8.0 0.00 0.00 0.00 58 849.7
20200808111530 61 267 9.0 12.0 0.00 0.00 0.00 59 849.5
20200808110147 62 155 3.0 7.0 0.00 0.00 0.00 58 848.9
20200808104714 60 128 3.0 5.0 0.00 0.00 0.00 61 848.9
20200808103029 62 74 3.0 7.0 0.00 0.00 0.00 59 849.2
20200808101530 60 261 2.0 4.0 0.00 0.00 0.00 63 849.2
20200808100125 60 163 3.0 5.0 0.00 0.00 0.00 64 849.2
20200808094604 64 296 1.0 5.0 0.00 0.00 0.00 59 849.6
20200808093156 65 349 3.0 9.0 0.00 0.00 0.00 55 849.6
20200808091758 61 348 1.0 8.0 0.00 0.00 0.00 61 849.8
20200808084608 63 19 1.0 8.0 0.00 0.00 0.00 57 849.5
20200808083053 64 278 2.0 4.0 0.00 0.00 0.00 54 849.4
20200808083018 64 278 2.0 4.0 0.00 0.00 0.00 54 849.3
20200808081545 66 350 2.0 6.0 0.00 0.00 0.00 50 848.9
20200808080106 68 355 3.0 9.0 0.00 0.00 0.00 46 848.5
20200808074525 69 57 7.0 14.0 0.00 0.00 0.00 46 848.4
20200808073051 70 42 9.0 15.0 0.00 0.00 0.00 45 848.4
20200808071555 70 30 6.0 12.0 0.00 0.00 0.00 45 848.5
20200808070024 69 28 6.0 10.0 0.00 0.00 0.00 46 848.6
20200808064516 72 36 5.0 13.0 0.00 0.00 0.00 44 848.5
20200808063032 72 24 7.0 15.0 0.00 0.00 0.00 43 848.3
20200808061616 71 57 7.0 14.0 0.00 0.00 0.00 46 848.3
20200808060130 70 33 7.0 13.0 0.00 0.00 0.00 48 848.4
20200808054557 70 9 9.0 14.0 0.00 0.00 0.00 48 848.7
20200808053106 70 338 6.0 9.0 0.00 0.00 0.00 48 848.6
20200808050026 70 284 4.0 9.0 0.00 0.00 0.00 49 848.0
20200808044557 70 42 5.0 10.0 0.00 0.00 0.00 51 847.6
20200808043050 70 9 6.0 11.0 0.00 0.00 0.00 50 847.5
20200808040026 70 350 7.0 11.0 0.00 0.00 0.00 50 847.7
20200808034519 72 40 4.0 8.0 0.00 0.00 0.00 48 847.5
20200808033049 74 355 6.0 9.0 0.00 0.00 0.00 46 847.3
20200808030046 77 344 2.0 6.0 0.00 0.00 0.00 39 846.8
20200808024558 79 42 6.0 10.0 0.00 0.00 0.00 34 846.3
20200808023126 80 35 4.0 7.0 0.00 0.00 0.00 31 846.0
20200808021621 81 74 7.0 12.0 0.00 0.00 0.00 29 845.5
20200808020052 82 73 8.0 11.0 0.00 0.00 0.00 28 845.5
20200808014610 84 70 7.0 11.0 0.00 0.00 0.00 26 845.3
20200808013115 85 61 9.0 14.0 0.00 0.00 0.00 25 844.9
20200808011721 87 84 2.0 9.0 0.00 0.00 0.00 18 844.8
20200808010054 89 62 4.0 11.0 0.00 0.00 0.00 17 844.7
20200808003052 90 32 2.0 10.0 0.00 0.01 0.00 16 844.6
20200808001530 91 60 4.0 9.0 0.00 0.01 0.00 15 844.6
20200808000054 90 41 5.0 12.0 0.00 0.01 0.00 17 844.6
20200807234711 90 350 4.0 9.0 0.00 0.02 0.00 16 844.6
20200807233059 90 17 4.0 10.0 0.00 0.02 0.00 16 844.6
20200807231615 91 90 9.0 14.0 0.00 0.02 0.00 17 844.6
20200807230134 90 31 10.0 16.0 0.00 0.02 0.00 20 844.5
20200807224708 90 53 9.0 13.0 0.00 0.02 0.00 16 844.6
20200807223121 91 29 11.0 16.0 0.00 0.02 0.00 16 844.6
20200807221650 89 48 8.0 17.0 0.00 0.02 0.00 21 844.6
20200807220057 89 53 11.0 17.0 0.00 0.02 0.00 20 844.6
20200807214533 88 43 11.0 20.0 0.00 0.02 0.00 20 844.6
20200807213118 88 42 13.0 18.0 0.00 0.02 0.00 18 844.6
20200807211609 89 72 10.0 18.0 0.00 0.02 0.00 16 844.8
20200807210029 88 350 15.0 26.0 0.00 0.02 0.00 17 844.7
20200807204604 88 344 14.0 25.0 0.00 0.02 0.00 18 844.8
20200807203001 93 343 12.0 24.0 0.00 0.02 0.00 14 844.8